sensor_id;sensor_type;location;lat;lon;timestamp;temperature;humidity
16736;DHT22;17990;49.548;9.730;2022-10-03T00:04:51;8.40;99.90
16736;DHT22;17990;49.548;9.730;2022-10-03T00:07:54;8.40;99.90
16736;DHT22;17990;49.548;9.730;2022-10-03T00:10:37;8.40;99.90
16736;DHT22;17990;49.548;9.730;2022-10-03T00:13:20;8.40;99.90
16736;DHT22;17990;49.548;9.730;2022-10-03T00:15:59;8.40;99.90
16736;DHT22;17990;49.548;9.730;2022-10-03T00:18:36;8.50;99.90
16736;DHT22;17990;49.548;9.730;2022-10-03T00:21:23;8.40;99.90
16736;DHT22;17990;49.548;9.730;2022-10-03T00:24:05;8.50;99.90
16736;DHT22;17990;49.548;9.730;2022-10-03T00:26:45;8.50;99.90
16736;DHT22;17990;49.548;9.730;2022-10-03T00:29:27;8.60;99.90
16736;DHT22;17990;49.548;9.730;2022-10-03T00:32:13;8.60;99.90
16736;DHT22;17990;49.548;9.730;2022-10-03T00:35:04;8.60;99.90
16736;DHT22;17990;49.548;9.730;2022-10-03T00:37:44;8.60;99.90
16736;DHT22;17990;49.548;9.730;2022-10-03T00:50:29;8.50;99.90
16736;DHT22;17990;49.548;9.730;2022-10-03T00:53:19;8.50;99.90
16736;DHT22;17990;49.548;9.730;2022-10-03T00:56:02;8.40;99.90
16736;DHT22;17990;49.548;9.730;2022-10-03T00:58:51;8.40;99.90
16736;DHT22;17990;49.548;9.730;2022-10-03T01:01:32;8.40;99.90
16736;DHT22;17990;49.548;9.730;2022-10-03T01:04:20;8.30;99.90
16736;DHT22;17990;49.548;9.730;2022-10-03T01:07:19;8.30;99.90
16736;DHT22;17990;49.548;9.730;2022-10-03T01:10:07;8.30;99.90
16736;DHT22;17990;49.548;9.730;2022-10-03T01:13:00;8.30;99.90
16736;DHT22;17990;49.548;9.730;2022-10-03T01:15:44;8.30;99.90
16736;DHT22;17990;49.548;9.730;2022-10-03T01:18:21;8.30;99.90
16736;DHT22;17990;49.548;9.730;2022-10-03T01:21:01;8.30;99.90
16736;DHT22;17990;49.548;9.730;2022-10-03T01:24:03;8.20;99.90
16736;DHT22;17990;49.548;9.730;2022-10-03T01:26:55;8.10;99.90
16736;DHT22;17990;49.548;9.730;2022-10-03T01:29:35;8.10;99.90
16736;DHT22;17990;49.548;9.730;2022-10-03T01:32:29;8.00;99.90
16736;DHT22;17990;49.548;9.730;2022-10-03T01:35:05;8.00;99.90
16736;DHT22;17990;49.548;9.730;2022-10-03T01:37:47;7.90;99.90
16736;DHT22;17990;49.548;9.730;2022-10-03T01:40:26;8.00;99.90
16736;DHT22;17990;49.548;9.730;2022-10-03T01:43:09;7.90;99.90
16736;DHT22;17990;49.548;9.730;2022-10-03T01:45:51;7.80;99.90
16736;DHT22;17990;49.548;9.730;2022-10-03T01:48:30;7.80;99.90
16736;DHT22;17990;49.548;9.730;2022-10-03T01:51:07;7.70;99.90
16736;DHT22;17990;49.548;9.730;2022-10-03T01:53:47;7.70;99.90
16736;DHT22;17990;49.548;9.730;2022-10-03T01:56:30;7.70;99.90
16736;DHT22;17990;49.548;9.730;2022-10-03T01:59:03;7.80;99.90
16736;DHT22;17990;49.548;9.730;2022-10-03T02:01:42;7.90;99.90
16736;DHT22;17990;49.548;9.730;2022-10-03T02:04:19;7.90;99.90
16736;DHT22;17990;49.548;9.730;2022-10-03T02:06:55;8.00;99.90
16736;DHT22;17990;49.548;9.730;2022-10-03T02:09:34;8.00;99.90
16736;DHT22;17990;49.548;9.730;2022-10-03T02:12:13;8.00;99.90
16736;DHT22;17990;49.548;9.730;2022-10-03T02:14:50;8.10;99.90
16736;DHT22;17990;49.548;9.730;2022-10-03T02:17:26;8.20;99.90
16736;DHT22;17990;49.548;9.730;2022-10-03T02:20:05;8.20;99.90
16736;DHT22;17990;49.548;9.730;2022-10-03T02:22:43;8.20;99.90
16736;DHT22;17990;49.548;9.730;2022-10-03T02:25:20;8.30;99.90
16736;DHT22;17990;49.548;9.730;2022-10-03T02:28:18;8.30;99.90
16736;DHT22;17990;49.548;9.730;2022-10-03T02:31:30;8.40;99.90
16736;DHT22;17990;49.548;9.730;2022-10-03T02:34:31;8.30;99.90
16736;DHT22;17990;49.548;9.730;2022-10-03T02:37:53;8.30;99.90
16736;DHT22;17990;49.548;9.730;2022-10-03T02:40:54;8.30;99.90
16736;DHT22;17990;49.548;9.730;2022-10-03T02:44:00;8.30;99.90
16736;DHT22;17990;49.548;9.730;2022-10-03T02:50:22;8.30;99.90
16736;DHT22;17990;49.548;9.730;2022-10-03T02:59:50;8.30;99.90
16736;DHT22;17990;49.548;9.730;2022-10-03T03:03:00;8.30;99.90
16736;DHT22;17990;49.548;9.730;2022-10-03T03:12:38;8.30;99.90
16736;DHT22;17990;49.548;9.730;2022-10-03T03:19:04;8.30;99.90
16736;DHT22;17990;49.548;9.730;2022-10-03T03:22:07;8.30;99.90
16736;DHT22;17990;49.548;9.730;2022-10-03T03:24:55;8.20;99.90
16736;DHT22;17990;49.548;9.730;2022-10-03T03:27:42;8.20;99.90
16736;DHT22;17990;49.548;9.730;2022-10-03T03:30:18;8.20;99.90
16736;DHT22;17990;49.548;9.730;2022-10-03T03:33:04;8.20;99.90
16736;DHT22;17990;49.548;9.730;2022-10-03T03:35:46;8.20;99.90
16736;DHT22;17990;49.548;9.730;2022-10-03T03:38:28;8.20;99.90
16736;DHT22;17990;49.548;9.730;2022-10-03T03:41:17;8.10;99.90
16736;DHT22;17990;49.548;9.730;2022-10-03T03:43:58;8.10;99.90
16736;DHT22;17990;49.548;9.730;2022-10-03T03:46:55;8.10;99.90
16736;DHT22;17990;49.548;9.730;2022-10-03T03:49:37;8.10;99.90
16736;DHT22;17990;49.548;9.730;2022-10-03T03:52:25;8.10;99.90
16736;DHT22;17990;49.548;9.730;2022-10-03T03:55:15;8.00;99.90
16736;DHT22;17990;49.548;9.730;2022-10-03T03:58:05;8.10;99.90
16736;DHT22;17990;49.548;9.730;2022-10-03T04:00:47;8.10;99.90
16736;DHT22;17990;49.548;9.730;2022-10-03T04:03:29;8.10;99.90
16736;DHT22;17990;49.548;9.730;2022-10-03T04:06:10;8.10;99.90
16736;DHT22;17990;49.548;9.730;2022-10-03T04:09:08;8.00;99.90
16736;DHT22;17990;49.548;9.730;2022-10-03T04:11:53;8.00;99.90
16736;DHT22;17990;49.548;9.730;2022-10-03T04:14:54;7.90;99.90
16736;DHT22;17990;49.548;9.730;2022-10-03T04:17:35;7.90;99.90
16736;DHT22;17990;49.548;9.730;2022-10-03T04:20:51;7.90;99.90
16736;DHT22;17990;49.548;9.730;2022-10-03T04:23:43;7.90;99.90
16736;DHT22;17990;49.548;9.730;2022-10-03T04:26:34;7.90;99.90
16736;DHT22;17990;49.548;9.730;2022-10-03T04:29:33;7.90;99.90
16736;DHT22;17990;49.548;9.730;2022-10-03T04:32:18;7.90;99.90
16736;DHT22;17990;49.548;9.730;2022-10-03T04:35:03;7.90;99.90
16736;DHT22;17990;49.548;9.730;2022-10-03T04:37:45;7.80;99.90
16736;DHT22;17990;49.548;9.730;2022-10-03T04:40:25;7.80;99.90
16736;DHT22;17990;49.548;9.730;2022-10-03T04:43:07;7.80;99.90
16736;DHT22;17990;49.548;9.730;2022-10-03T04:45:53;7.90;99.90
16736;DHT22;17990;49.548;9.730;2022-10-03T04:48:32;7.80;99.90
16736;DHT22;17990;49.548;9.730;2022-10-03T04:51:14;7.80;99.90
16736;DHT22;17990;49.548;9.730;2022-10-03T04:53:51;7.80;99.90
16736;DHT22;17990;49.548;9.730;2022-10-03T04:56:41;7.80;99.90
16736;DHT22;17990;49.548;9.730;2022-10-03T04:59:34;7.80;99.90
16736;DHT22;17990;49.548;9.730;2022-10-03T05:02:17;7.70;99.90
16736;DHT22;17990;49.548;9.730;2022-10-03T05:05:03;7.70;99.90
16736;DHT22;17990;49.548;9.730;2022-10-03T05:07:42;7.70;99.90
16736;DHT22;17990;49.548;9.730;2022-10-03T05:10:25;7.70;99.90
16736;DHT22;17990;49.548;9.730;2022-10-03T05:13:00;7.70;99.90
16736;DHT22;17990;49.548;9.730;2022-10-03T05:15:38;7.70;99.90
16736;DHT22;17990;49.548;9.730;2022-10-03T05:18:16;7.60;99.90
16736;DHT22;17990;49.548;9.730;2022-10-03T05:20:51;7.60;99.90
16736;DHT22;17990;49.548;9.730;2022-10-03T05:23:31;7.60;99.90
16736;DHT22;17990;49.548;9.730;2022-10-03T05:26:14;7.60;99.90
16736;DHT22;17990;49.548;9.730;2022-10-03T05:28:52;7.50;99.90
16736;DHT22;17990;49.548;9.730;2022-10-03T05:31:36;7.50;99.90
16736;DHT22;17990;49.548;9.730;2022-10-03T05:34:22;7.50;99.90
16736;DHT22;17990;49.548;9.730;2022-10-03T05:37:18;7.50;99.90
16736;DHT22;17990;49.548;9.730;2022-10-03T05:40:02;7.40;99.90
16736;DHT22;17990;49.548;9.730;2022-10-03T05:42:41;7.50;99.90
16736;DHT22;17990;49.548;9.730;2022-10-03T05:45:26;7.60;99.90
16736;DHT22;17990;49.548;9.730;2022-10-03T05:48:10;7.60;99.90
16736;DHT22;17990;49.548;9.730;2022-10-03T05:57:16;7.50;99.90
16736;DHT22;17990;49.548;9.730;2022-10-03T06:00:08;7.50;99.90
16736;DHT22;17990;49.548;9.730;2022-10-03T06:05:53;7.60;99.90
16736;DHT22;17990;49.548;9.730;2022-10-03T06:12:07;7.60;99.90
16736;DHT22;17990;49.548;9.730;2022-10-03T06:15:04;7.60;99.90
16736;DHT22;17990;49.548;9.730;2022-10-03T06:18:02;7.60;99.90
16736;DHT22;17990;49.548;9.730;2022-10-03T06:21:13;7.50;99.90
16736;DHT22;17990;49.548;9.730;2022-10-03T06:24:13;7.50;99.90
16736;DHT22;17990;49.548;9.730;2022-10-03T06:30:19;7.70;99.90
16736;DHT22;17990;49.548;9.730;2022-10-03T06:36:20;8.00;99.90
16736;DHT22;17990;49.548;9.730;2022-10-03T06:43:17;8.10;99.90
16736;DHT22;17990;49.548;9.730;2022-10-03T06:49:31;8.20;99.90
16736;DHT22;17990;49.548;9.730;2022-10-03T06:58:56;8.30;99.90
16736;DHT22;17990;49.548;9.730;2022-10-03T07:08:33;8.60;99.90
16736;DHT22;17990;49.548;9.730;2022-10-03T07:15:06;9.50;99.90
16736;DHT22;17990;49.548;9.730;2022-10-03T07:17:52;9.90;99.90
16736;DHT22;17990;49.548;9.730;2022-10-03T07:24:24;10.90;99.90
16736;DHT22;17990;49.548;9.730;2022-10-03T07:27:15;10.40;99.90
16736;DHT22;17990;49.548;9.730;2022-10-03T07:30:09;10.40;99.90
16736;DHT22;17990;49.548;9.730;2022-10-03T07:36:21;11.50;99.90
16736;DHT22;17990;49.548;9.730;2022-10-03T07:42:50;13.10;99.90
16736;DHT22;17990;49.548;9.730;2022-10-03T07:45:31;13.80;99.90
16736;DHT22;17990;49.548;9.730;2022-10-03T07:48:24;14.10;99.90
16736;DHT22;17990;49.548;9.730;2022-10-03T07:51:30;14.10;99.90
16736;DHT22;17990;49.548;9.730;2022-10-03T07:54:26;14.30;99.90
16736;DHT22;17990;49.548;9.730;2022-10-03T07:57:26;14.10;99.90
16736;DHT22;17990;49.548;9.730;2022-10-03T08:00:09;13.60;99.90
16736;DHT22;17990;49.548;9.730;2022-10-03T08:03:14;13.50;99.90
16736;DHT22;17990;49.548;9.730;2022-10-03T08:06:20;13.60;99.90
16736;DHT22;17990;49.548;9.730;2022-10-03T08:09:27;13.60;99.90
16736;DHT22;17990;49.548;9.730;2022-10-03T08:15:08;13.70;99.90
16736;DHT22;17990;49.548;9.730;2022-10-03T08:18:10;13.50;99.90
16736;DHT22;17990;49.548;9.730;2022-10-03T08:20:56;13.70;99.90
16736;DHT22;17990;49.548;9.730;2022-10-03T08:23:48;13.70;99.90
16736;DHT22;17990;49.548;9.730;2022-10-03T08:30:18;13.50;99.90
16736;DHT22;17990;49.548;9.730;2022-10-03T08:32:56;13.50;99.90
16736;DHT22;17990;49.548;9.730;2022-10-03T08:35:33;13.60;99.90
16736;DHT22;17990;49.548;9.730;2022-10-03T08:48:32;13.90;99.90
16736;DHT22;17990;49.548;9.730;2022-10-03T08:51:38;13.90;99.90
16736;DHT22;17990;49.548;9.730;2022-10-03T08:54:33;14.00;99.90
16736;DHT22;17990;49.548;9.730;2022-10-03T08:57:23;13.90;99.90
16736;DHT22;17990;49.548;9.730;2022-10-03T09:00:12;13.90;99.90
16736;DHT22;17990;49.548;9.730;2022-10-03T09:06:51;13.90;99.90
16736;DHT22;17990;49.548;9.730;2022-10-03T09:09:56;13.90;99.90
16736;DHT22;17990;49.548;9.730;2022-10-03T09:13:07;13.90;99.90
16736;DHT22;17990;49.548;9.730;2022-10-03T09:19:18;14.10;99.90
16736;DHT22;17990;49.548;9.730;2022-10-03T09:22:16;14.10;99.90
16736;DHT22;17990;49.548;9.730;2022-10-03T09:25:09;14.20;99.90
16736;DHT22;17990;49.548;9.730;2022-10-03T09:28:27;14.30;99.90
16736;DHT22;17990;49.548;9.730;2022-10-03T09:31:16;14.50;99.90
16736;DHT22;17990;49.548;9.730;2022-10-03T09:34:26;14.70;99.90
16736;DHT22;17990;49.548;9.730;2022-10-03T09:37:38;14.90;99.90
16736;DHT22;17990;49.548;9.730;2022-10-03T09:47:22;15.50;99.90
16736;DHT22;17990;49.548;9.730;2022-10-03T09:50:48;15.90;99.90
16736;DHT22;17990;49.548;9.730;2022-10-03T09:54:12;16.40;99.90
16736;DHT22;17990;49.548;9.730;2022-10-03T09:57:03;16.40;99.90
16736;DHT22;17990;49.548;9.730;2022-10-03T10:03:00;16.60;99.90
16736;DHT22;17990;49.548;9.730;2022-10-03T10:06:04;16.80;99.90
16736;DHT22;17990;49.548;9.730;2022-10-03T10:09:13;17.30;99.90
16736;DHT22;17990;49.548;9.730;2022-10-03T10:12:06;17.50;99.90
16736;DHT22;17990;49.548;9.730;2022-10-03T10:15:05;17.40;99.90
16736;DHT22;17990;49.548;9.730;2022-10-03T10:25:03;17.10;99.90
16736;DHT22;17990;49.548;9.730;2022-10-03T10:31:47;17.00;99.90
16736;DHT22;17990;49.548;9.730;2022-10-03T10:35:10;16.80;99.90
16736;DHT22;17990;49.548;9.730;2022-10-03T10:41:14;16.60;99.90
16736;DHT22;17990;49.548;9.730;2022-10-03T10:44:33;16.60;99.90
16736;DHT22;17990;49.548;9.730;2022-10-03T10:47:50;16.70;99.90
16736;DHT22;17990;49.548;9.730;2022-10-03T10:57:13;17.40;99.90
16736;DHT22;17990;49.548;9.730;2022-10-03T11:00:10;17.80;99.90
16736;DHT22;17990;49.548;9.730;2022-10-03T11:03:32;18.00;99.90
16736;DHT22;17990;49.548;9.730;2022-10-03T11:06:51;18.00;99.90
16736;DHT22;17990;49.548;9.730;2022-10-03T11:09:44;17.90;99.90
16736;DHT22;17990;49.548;9.730;2022-10-03T11:13:16;17.70;99.90
16736;DHT22;17990;49.548;9.730;2022-10-03T11:26:43;17.10;99.90
16736;DHT22;17990;49.548;9.730;2022-10-03T11:33:28;17.60;99.90
16736;DHT22;17990;49.548;9.730;2022-10-03T11:36:41;17.70;99.90
16736;DHT22;17990;49.548;9.730;2022-10-03T11:39:39;18.00;99.90
16736;DHT22;17990;49.548;9.730;2022-10-03T11:42:19;18.30;99.90
16736;DHT22;17990;49.548;9.730;2022-10-03T11:44:55;18.50;99.90
16736;DHT22;17990;49.548;9.730;2022-10-03T11:47:51;19.00;99.90
16736;DHT22;17990;49.548;9.730;2022-10-03T11:50:43;19.70;99.90
16736;DHT22;17990;49.548;9.730;2022-10-03T11:53:35;19.90;99.90
16736;DHT22;17990;49.548;9.730;2022-10-03T11:56:23;19.70;99.90
16736;DHT22;17990;49.548;9.730;2022-10-03T12:02:31;19.00;99.90
16736;DHT22;17990;49.548;9.730;2022-10-03T12:05:16;18.70;99.90
16736;DHT22;17990;49.548;9.730;2022-10-03T12:07:54;18.60;99.90
16736;DHT22;17990;49.548;9.730;2022-10-03T12:10:53;18.40;99.90
16736;DHT22;17990;49.548;9.730;2022-10-03T12:13:31;18.00;99.90
16736;DHT22;17990;49.548;9.730;2022-10-03T12:16:05;17.60;99.90
16736;DHT22;17990;49.548;9.730;2022-10-03T12:18:52;17.40;99.90
16736;DHT22;17990;49.548;9.730;2022-10-03T12:21:27;17.40;99.90
16736;DHT22;17990;49.548;9.730;2022-10-03T12:24:04;17.60;99.90
16736;DHT22;17990;49.548;9.730;2022-10-03T12:26:52;17.40;99.90
16736;DHT22;17990;49.548;9.730;2022-10-03T12:29:25;17.60;99.90
16736;DHT22;17990;49.548;9.730;2022-10-03T12:32:07;17.80;99.90
16736;DHT22;17990;49.548;9.730;2022-10-03T12:34:49;17.90;99.90
16736;DHT22;17990;49.548;9.730;2022-10-03T12:37:38;17.80;99.90
16736;DHT22;17990;49.548;9.730;2022-10-03T12:40:15;17.80;99.90
16736;DHT22;17990;49.548;9.730;2022-10-03T12:42:48;17.70;99.90
16736;DHT22;17990;49.548;9.730;2022-10-03T12:45:26;17.90;99.90
16736;DHT22;17990;49.548;9.730;2022-10-03T12:51:01;18.30;99.90
16736;DHT22;17990;49.548;9.730;2022-10-03T12:53:47;18.60;99.90
16736;DHT22;17990;49.548;9.730;2022-10-03T12:56:26;18.70;99.90
16736;DHT22;17990;49.548;9.730;2022-10-03T12:59:06;18.70;99.90
16736;DHT22;17990;49.548;9.730;2022-10-03T13:01:55;18.70;99.90
16736;DHT22;17990;49.548;9.730;2022-10-03T13:04:36;18.60;99.90
16736;DHT22;17990;49.548;9.730;2022-10-03T13:07:18;18.50;99.90
16736;DHT22;17990;49.548;9.730;2022-10-03T13:10:00;18.40;99.90
16736;DHT22;17990;49.548;9.730;2022-10-03T13:12:35;18.60;99.90
16736;DHT22;17990;49.548;9.730;2022-10-03T13:18:28;19.20;99.90
16736;DHT22;17990;49.548;9.730;2022-10-03T13:21:04;19.00;99.90
16736;DHT22;17990;49.548;9.730;2022-10-03T13:23:41;18.90;99.90
16736;DHT22;17990;49.548;9.730;2022-10-03T13:26:16;18.70;99.90
16736;DHT22;17990;49.548;9.730;2022-10-03T13:29:07;18.60;99.90
16736;DHT22;17990;49.548;9.730;2022-10-03T13:31:54;18.40;99.90
16736;DHT22;17990;49.548;9.730;2022-10-03T13:34:31;18.30;99.90
16736;DHT22;17990;49.548;9.730;2022-10-03T13:37:05;18.00;99.90
16736;DHT22;17990;49.548;9.730;2022-10-03T13:39:45;17.70;99.90
16736;DHT22;17990;49.548;9.730;2022-10-03T13:42:16;17.70;99.90
16736;DHT22;17990;49.548;9.730;2022-10-03T13:44:48;17.70;99.90
16736;DHT22;17990;49.548;9.730;2022-10-03T13:47:41;17.50;99.90
16736;DHT22;17990;49.548;9.730;2022-10-03T13:50:15;17.20;99.90
16736;DHT22;17990;49.548;9.730;2022-10-03T13:52:48;16.90;99.90
16736;DHT22;17990;49.548;9.730;2022-10-03T13:55:32;16.70;99.90
16736;DHT22;17990;49.548;9.730;2022-10-03T13:58:27;16.70;99.90
16736;DHT22;17990;49.548;9.730;2022-10-03T14:01:23;16.70;99.90
16736;DHT22;17990;49.548;9.730;2022-10-03T14:04:29;16.90;99.90
16736;DHT22;17990;49.548;9.730;2022-10-03T14:07:10;17.10;99.90
16736;DHT22;17990;49.548;9.730;2022-10-03T14:12:55;17.20;99.90
16736;DHT22;17990;49.548;9.730;2022-10-03T14:15:39;17.20;99.90
16736;DHT22;17990;49.548;9.730;2022-10-03T14:18:24;17.30;99.90
16736;DHT22;17990;49.548;9.730;2022-10-03T14:21:29;17.40;99.90
16736;DHT22;17990;49.548;9.730;2022-10-03T14:24:13;17.60;99.90
16736;DHT22;17990;49.548;9.730;2022-10-03T14:26:51;17.90;99.90
16736;DHT22;17990;49.548;9.730;2022-10-03T14:29:28;18.20;99.90
16736;DHT22;17990;49.548;9.730;2022-10-03T14:32:03;18.50;99.90
16736;DHT22;17990;49.548;9.730;2022-10-03T14:34:40;18.50;99.90
16736;DHT22;17990;49.548;9.730;2022-10-03T14:37:22;18.30;99.90
16736;DHT22;17990;49.548;9.730;2022-10-03T14:40:10;18.00;99.90
16736;DHT22;17990;49.548;9.730;2022-10-03T14:42:58;17.80;99.90
16736;DHT22;17990;49.548;9.730;2022-10-03T14:45:44;17.60;99.90
16736;DHT22;17990;49.548;9.730;2022-10-03T14:48:16;17.60;99.90
16736;DHT22;17990;49.548;9.730;2022-10-03T14:50:46;17.60;99.90
16736;DHT22;17990;49.548;9.730;2022-10-03T14:53:18;17.70;99.90
16736;DHT22;17990;49.548;9.730;2022-10-03T14:55:55;17.80;99.90
16736;DHT22;17990;49.548;9.730;2022-10-03T14:58:27;17.70;99.90
16736;DHT22;17990;49.548;9.730;2022-10-03T15:01:03;17.80;99.90
16736;DHT22;17990;49.548;9.730;2022-10-03T15:03:38;17.70;99.90
16736;DHT22;17990;49.548;9.730;2022-10-03T15:06:36;17.70;99.90
16736;DHT22;17990;49.548;9.730;2022-10-03T15:09:24;17.70;99.90
16736;DHT22;17990;49.548;9.730;2022-10-03T15:11:56;17.60;99.90
16736;DHT22;17990;49.548;9.730;2022-10-03T15:14:29;17.60;99.90
16736;DHT22;17990;49.548;9.730;2022-10-03T15:17:03;17.40;99.90
16736;DHT22;17990;49.548;9.730;2022-10-03T15:19:36;17.20;99.90
16736;DHT22;17990;49.548;9.730;2022-10-03T15:22:15;16.90;99.90
16736;DHT22;17990;49.548;9.730;2022-10-03T15:24:50;16.80;99.90
16736;DHT22;17990;49.548;9.730;2022-10-03T15:27:21;16.60;99.90
16736;DHT22;17990;49.548;9.730;2022-10-03T15:29:52;16.50;99.90
16736;DHT22;17990;49.548;9.730;2022-10-03T15:32:26;16.40;99.90
16736;DHT22;17990;49.548;9.730;2022-10-03T15:34:58;16.20;99.90
16736;DHT22;17990;49.548;9.730;2022-10-03T15:37:30;16.20;99.90
16736;DHT22;17990;49.548;9.730;2022-10-03T15:40:03;16.30;99.90
16736;DHT22;17990;49.548;9.730;2022-10-03T15:42:44;16.30;99.90
16736;DHT22;17990;49.548;9.730;2022-10-03T15:45:23;16.40;99.90
16736;DHT22;17990;49.548;9.730;2022-10-03T15:47:54;16.40;99.90
16736;DHT22;17990;49.548;9.730;2022-10-03T15:50:25;16.40;99.90
16736;DHT22;17990;49.548;9.730;2022-10-03T15:52:55;16.40;99.90
16736;DHT22;17990;49.548;9.730;2022-10-03T15:55:28;16.50;99.90
16736;DHT22;17990;49.548;9.730;2022-10-03T15:58:03;16.40;99.90
16736;DHT22;17990;49.548;9.730;2022-10-03T16:00:35;16.40;99.90
16736;DHT22;17990;49.548;9.730;2022-10-03T16:03:11;16.30;99.90
16736;DHT22;17990;49.548;9.730;2022-10-03T16:05:50;16.20;99.90
16736;DHT22;17990;49.548;9.730;2022-10-03T16:08:25;16.10;99.90
16736;DHT22;17990;49.548;9.730;2022-10-03T16:11:01;16.00;99.90
16736;DHT22;17990;49.548;9.730;2022-10-03T16:13:35;16.00;99.90
16736;DHT22;17990;49.548;9.730;2022-10-03T16:16:10;15.90;99.90
16736;DHT22;17990;49.548;9.730;2022-10-03T16:18:55;15.80;99.90
16736;DHT22;17990;49.548;9.730;2022-10-03T16:21:41;15.70;99.90
16736;DHT22;17990;49.548;9.730;2022-10-03T16:24:20;15.60;99.90
16736;DHT22;17990;49.548;9.730;2022-10-03T16:27:04;15.60;99.90
16736;DHT22;17990;49.548;9.730;2022-10-03T16:29:35;15.40;99.90
16736;DHT22;17990;49.548;9.730;2022-10-03T16:32:05;15.40;99.90
16736;DHT22;17990;49.548;9.730;2022-10-03T16:34:36;15.30;99.90
16736;DHT22;17990;49.548;9.730;2022-10-03T16:37:16;15.20;99.90
16736;DHT22;17990;49.548;9.730;2022-10-03T16:39:51;15.10;99.90
16736;DHT22;17990;49.548;9.730;2022-10-03T16:42:23;15.10;99.90
16736;DHT22;17990;49.548;9.730;2022-10-03T16:44:54;15.00;99.90
16736;DHT22;17990;49.548;9.730;2022-10-03T16:47:30;14.90;99.90
16736;DHT22;17990;49.548;9.730;2022-10-03T16:50:02;14.80;99.90
16736;DHT22;17990;49.548;9.730;2022-10-03T16:52:49;14.70;99.90
16736;DHT22;17990;49.548;9.730;2022-10-03T16:55:20;14.50;99.90
16736;DHT22;17990;49.548;9.730;2022-10-03T16:57:51;14.40;99.90
16736;DHT22;17990;49.548;9.730;2022-10-03T17:00:25;14.30;99.90
16736;DHT22;17990;49.548;9.730;2022-10-03T17:02:56;14.20;99.90
16736;DHT22;17990;49.548;9.730;2022-10-03T17:05:25;14.10;99.90
16736;DHT22;17990;49.548;9.730;2022-10-03T17:07:57;14.00;99.90
16736;DHT22;17990;49.548;9.730;2022-10-03T17:10:34;13.90;99.90
16736;DHT22;17990;49.548;9.730;2022-10-03T17:13:10;13.80;99.90
16736;DHT22;17990;49.548;9.730;2022-10-03T17:15:44;13.70;99.90
16736;DHT22;17990;49.548;9.730;2022-10-03T17:18:20;13.50;99.90
16736;DHT22;17990;49.548;9.730;2022-10-03T17:20:54;13.40;99.90
16736;DHT22;17990;49.548;9.730;2022-10-03T17:23:30;13.30;99.90
16736;DHT22;17990;49.548;9.730;2022-10-03T17:26:04;13.20;99.90
16736;DHT22;17990;49.548;9.730;2022-10-03T17:28:37;13.10;99.90
16736;DHT22;17990;49.548;9.730;2022-10-03T17:31:28;13.00;99.90
16736;DHT22;17990;49.548;9.730;2022-10-03T17:34:07;12.80;99.90
16736;DHT22;17990;49.548;9.730;2022-10-03T17:37:04;12.70;99.90
16736;DHT22;17990;49.548;9.730;2022-10-03T17:39:54;12.50;99.90
16736;DHT22;17990;49.548;9.730;2022-10-03T17:42:32;12.40;99.90
16736;DHT22;17990;49.548;9.730;2022-10-03T17:45:13;12.30;99.90
16736;DHT22;17990;49.548;9.730;2022-10-03T17:47:54;12.20;99.90
16736;DHT22;17990;49.548;9.730;2022-10-03T17:50:27;12.00;99.90
16736;DHT22;17990;49.548;9.730;2022-10-03T17:52:58;11.90;99.90
16736;DHT22;17990;49.548;9.730;2022-10-03T17:55:29;11.80;99.90
16736;DHT22;17990;49.548;9.730;2022-10-03T17:58:01;11.70;99.90
16736;DHT22;17990;49.548;9.730;2022-10-03T18:00:33;11.60;99.90
16736;DHT22;17990;49.548;9.730;2022-10-03T18:03:06;11.60;99.90
16736;DHT22;17990;49.548;9.730;2022-10-03T18:05:38;11.50;99.90
16736;DHT22;17990;49.548;9.730;2022-10-03T18:08:13;11.40;99.90
16736;DHT22;17990;49.548;9.730;2022-10-03T18:10:47;11.30;99.90
16736;DHT22;17990;49.548;9.730;2022-10-03T18:13:16;11.30;99.90
16736;DHT22;17990;49.548;9.730;2022-10-03T18:18:56;11.10;99.90
16736;DHT22;17990;49.548;9.730;2022-10-03T18:21:45;11.00;99.90
16736;DHT22;17990;49.548;9.730;2022-10-03T18:24:49;10.80;99.90
16736;DHT22;17990;49.548;9.730;2022-10-03T18:27:38;10.80;99.90
16736;DHT22;17990;49.548;9.730;2022-10-03T18:30:19;10.70;99.90
16736;DHT22;17990;49.548;9.730;2022-10-03T18:32:48;10.60;99.90
16736;DHT22;17990;49.548;9.730;2022-10-03T18:35:19;10.50;99.90
16736;DHT22;17990;49.548;9.730;2022-10-03T18:38:03;10.50;99.90
16736;DHT22;17990;49.548;9.730;2022-10-03T18:40:39;10.40;99.90
16736;DHT22;17990;49.548;9.730;2022-10-03T18:43:27;10.30;99.90
16736;DHT22;17990;49.548;9.730;2022-10-03T18:46:11;10.20;99.90
16736;DHT22;17990;49.548;9.730;2022-10-03T18:48:47;10.10;99.90
16736;DHT22;17990;49.548;9.730;2022-10-03T18:51:25;10.10;99.90
16736;DHT22;17990;49.548;9.730;2022-10-03T18:54:00;10.00;99.90
16736;DHT22;17990;49.548;9.730;2022-10-03T18:56:32;9.90;99.90
16736;DHT22;17990;49.548;9.730;2022-10-03T18:59:18;9.80;99.90
16736;DHT22;17990;49.548;9.730;2022-10-03T19:01:51;9.70;99.90
16736;DHT22;17990;49.548;9.730;2022-10-03T19:04:38;9.70;99.90
16736;DHT22;17990;49.548;9.730;2022-10-03T19:07:15;9.60;99.90
16736;DHT22;17990;49.548;9.730;2022-10-03T19:13:00;9.60;99.90
16736;DHT22;17990;49.548;9.730;2022-10-03T19:19:00;9.50;99.90
16736;DHT22;17990;49.548;9.730;2022-10-03T19:21:34;9.40;99.90
16736;DHT22;17990;49.548;9.730;2022-10-03T19:24:05;9.30;99.90
16736;DHT22;17990;49.548;9.730;2022-10-03T19:26:41;9.30;99.90
16736;DHT22;17990;49.548;9.730;2022-10-03T19:29:13;9.30;99.90
16736;DHT22;17990;49.548;9.730;2022-10-03T19:31:50;9.20;99.90
16736;DHT22;17990;49.548;9.730;2022-10-03T19:34:22;9.10;99.90
16736;DHT22;17990;49.548;9.730;2022-10-03T19:36:54;9.10;99.90
16736;DHT22;17990;49.548;9.730;2022-10-03T19:39:25;9.00;99.90
16736;DHT22;17990;49.548;9.730;2022-10-03T19:41:55;9.00;99.90
16736;DHT22;17990;49.548;9.730;2022-10-03T19:44:27;8.90;99.90
16736;DHT22;17990;49.548;9.730;2022-10-03T19:47:03;8.80;99.90
16736;DHT22;17990;49.548;9.730;2022-10-03T19:49:45;8.80;99.90
16736;DHT22;17990;49.548;9.730;2022-10-03T19:52:24;8.80;99.90
16736;DHT22;17990;49.548;9.730;2022-10-03T19:54:57;8.70;99.90
16736;DHT22;17990;49.548;9.730;2022-10-03T19:57:31;8.70;99.90
16736;DHT22;17990;49.548;9.730;2022-10-03T20:00:18;8.60;99.90
16736;DHT22;17990;49.548;9.730;2022-10-03T20:02:52;8.50;99.90
16736;DHT22;17990;49.548;9.730;2022-10-03T20:05:25;8.50;99.90
16736;DHT22;17990;49.548;9.730;2022-10-03T20:07:59;8.50;99.90
16736;DHT22;17990;49.548;9.730;2022-10-03T20:10:46;8.40;99.90
16736;DHT22;17990;49.548;9.730;2022-10-03T20:13:21;8.40;99.90
16736;DHT22;17990;49.548;9.730;2022-10-03T20:15:50;8.40;99.90
16736;DHT22;17990;49.548;9.730;2022-10-03T20:18:20;8.30;99.90
16736;DHT22;17990;49.548;9.730;2022-10-03T20:20:51;8.30;99.90
16736;DHT22;17990;49.548;9.730;2022-10-03T20:23:22;8.30;99.90
16736;DHT22;17990;49.548;9.730;2022-10-03T20:25:53;8.20;99.90